NCAR-RAP Real-Time Weather Data

Output produced by METARs form (12 May 2021  11:01 UTC)
found at http://weather.rap.ucar.edu/surface/
 
KRHI 121053Z AUTO 00000KT 10SM CLR M04/M06 A3042 RMK AO2 SLP317 T10391061
KRHI 121050Z AUTO 00000KT 10SM CLR M04/M06 A3042 RMK AO2
KRHI 121041Z AUTO 00000KT 2 1/2SM BR CLR M04/M06 A3042 RMK AO2 T10391061
KRHI 120953Z AUTO 00000KT 10SM CLR M04/M07 A3041 RMK AO2 SLP312 T10391067
KRHI 120853Z AUTO 00000KT 10SM CLR M03/M07 A3040 RMK AO2 SLP308 T10331067 53001
KRHI 120753Z AUTO 00000KT 10SM CLR M02/M06 A3039 RMK AO2 SLP306 T10221056
KRHI 120653Z AUTO 00000KT 10SM CLR M02/M07 A3039 RMK AO2 SLP308 T10221067
KRHI 120553Z AUTO 00000KT 10SM CLR M03/M07 A3039 RMK AO2 SLP308 T10281067 10117 21028 401281050 58000
KRHI 120453Z AUTO 00000KT 10SM CLR M01/M07 A3039 RMK AO2 SLP308 T10111067
KRHI 120353Z AUTO 00000KT 10SM CLR 01/M06 A3040 RMK AO2 SLP309 T00111056
KRHI 120253Z AUTO 00000KT 10SM CLR 06/M06 A3040 RMK AO2 SLP305 T00611056 51023
KRHI 120153Z AUTO 00000KT 10SM CLR 09/M06 A3038 RMK AO2 SLP297 T00891056
KRHI 120053Z AUTO 34004KT 10SM CLR 11/M06 A3034 RMK AO2 SLP286 T01061061
KRHI 112353Z AUTO VRB05KT 10SM CLR 12/M06 A3032 RMK AO2 SLP281 T01171061 10128 20089 53003
KRHI 112253Z AUTO 02008KT 10SM CLR 12/M06 A3032 RMK AO2 SLP280 T01171061
KRHI 112153Z AUTO 35009KT 10SM CLR 12/M06 A3031 RMK AO2 SLP278 T01221056
KRHI 112053Z AUTO 02008G17KT 340V070 10SM SCT070 12/M05 A3032 RMK AO2 SLP281 T01171050 56016